Time;durP1;ratioP1;P1;durP2;ratioP2;P2;SDS_P1;SDS_P2;PMS_P1;PMS_P2;Temp;Humidity;BMP_temperature;BMP_pressure;BME280_temperature;BME280_humidity;BME280_pressure;Samples;Min_cycle;Max_cycle;Signal;HPM_P1;HPM_P2
2022/03/21 00:00:22;;;;;;;25.55;18.40;;;4.40;79.60;;;;;;2071394;28;20484;-83
2022/03/21 00:01:23;;;;;;;23.77;17.50;;;4.40;79.70;;;;;;2072610;28;20041;-83
2022/03/21 00:02:24;;;;;;;26.23;18.17;;;4.40;79.80;;;;;;2069078;28;20033;-83
2022/03/21 00:03:30;;;;;;;25.45;18.35;;;4.40;80.40;;;;;;2060032;28;20042;-83
2022/03/21 00:04:30;;;;;;;24.02;17.77;;;4.40;79.90;;;;;;2073173;28;20072;-83
2022/03/21 00:05:31;;;;;;;26.23;18.65;;;4.40;80.00;;;;;;2070688;28;20026;-83
2022/03/21 00:06:32;;;;;;;26.60;17.98;;;4.40;80.00;;;;;;2068742;28;20072;-82
2022/03/21 00:07:33;;;;;;;27.23;18.90;;;4.40;80.10;;;;;;2070924;28;20048;-83
2022/03/21 00:08:33;;;;;;;25.88;18.13;;;4.40;80.10;;;;;;2072632;28;20096;-83
2022/03/21 00:09:34;;;;;;;25.05;18.40;;;4.40;80.20;;;;;;2071368;28;20556;-83
2022/03/21 00:10:35;;;;;;;25.63;18.50;;;4.40;80.20;;;;;;2068018;28;20468;-83
2022/03/21 00:11:36;;;;;;;26.10;19.10;;;4.40;80.30;;;;;;2070907;28;20026;-83
2022/03/21 00:12:39;;;;;;;26.45;18.35;;;4.40;80.30;;;;;;2072346;28;20037;-83
2022/03/21 00:13:40;;;;;;;24.85;18.02;;;4.40;80.40;;;;;;2068158;28;20515;-83
2022/03/21 00:14:44;;;;;;;26.65;18.58;;;4.40;80.40;;;;;;2073127;28;20033;-83
2022/03/21 00:15:46;;;;;;;26.33;18.50;;;4.40;80.50;;;;;;2072458;28;20061;-83
2022/03/21 00:16:47;;;;;;;25.92;18.83;;;4.40;80.50;;;;;;2072583;28;20468;-83
2022/03/21 00:17:47;;;;;;;28.08;19.38;;;4.40;80.60;;;;;;2067908;28;20066;-83
2022/03/21 00:18:48;;;;;;;26.15;18.80;;;4.40;80.60;;;;;;2070195;28;20033;-83
2022/03/21 00:19:49;;;;;;;25.67;18.05;;;4.40;80.70;;;;;;2073701;28;20389;-83
2022/03/21 00:20:52;;;;;;;26.08;18.40;;;4.40;80.80;;;;;;2068744;28;20031;-83
2022/03/21 00:21:53;;;;;;;26.50;19.13;;;4.40;80.90;;;;;;2071681;28;20037;-83
2022/03/21 00:22:53;;;;;;;27.67;19.55;;;4.40;80.90;;;;;;2070798;28;20059;-83
2022/03/21 00:23:54;;;;;;;26.98;19.38;;;4.40;81.00;;;;;;2062200;28;20113;-83
2022/03/21 00:24:55;;;;;;;30.55;20.20;;;4.40;81.70;;;;;;2064679;28;20400;-83
2022/03/21 00:25:55;;;;;;;26.38;18.33;;;4.40;81.10;;;;;;2060105;28;20050;-83
2022/03/21 00:26:56;;;;;;;26.40;18.33;;;4.40;81.20;;;;;;2044940;28;20517;-83
2022/03/21 00:27:58;;;;;;;27.15;19.65;;;4.40;81.20;;;;;;2061473;28;20041;-83
2022/03/21 00:28:59;;;;;;;26.90;18.38;;;4.40;81.20;;;;;;2059270;28;20027;-83
2022/03/21 00:29:59;;;;;;;26.90;19.98;;;4.40;81.30;;;;;;2055963;28;20027;-83
2022/03/21 00:31:00;;;;;;;27.38;20.17;;;4.40;81.40;;;;;;2060095;28;20132;-83
2022/03/21 00:32:04;;;;;;;26.85;19.42;;;4.30;81.30;;;;;;2072305;28;20018;-83
2022/03/21 00:33:04;;;;;;;26.67;19.08;;;4.30;81.40;;;;;;2070180;28;20030;-83
2022/03/21 00:34:05;;;;;;;25.65;19.00;;;4.40;81.50;;;;;;2067289;28;20137;-83
2022/03/21 00:35:07;;;;;;;27.73;20.13;;;4.30;81.50;;;;;;2072578;28;20036;-83
2022/03/21 00:36:08;;;;;;;27.58;19.77;;;4.40;81.70;;;;;;2070425;28;20038;-83
2022/03/21 00:37:09;;;;;;;29.05;19.90;;;4.30;81.70;;;;;;2067302;28;20401;-83
2022/03/21 00:38:16;;;;;;;27.70;20.08;;;4.30;81.70;;;;;;2068264;28;20057;-83
2022/03/21 00:39:17;;;;;;;25.83;18.95;;;4.30;81.70;;;;;;2065233;28;20065;-83
2022/03/21 00:40:18;;;;;;;26.38;19.35;;;4.30;81.70;;;;;;2072381;28;20030;-83
2022/03/21 00:41:20;;;;;;;26.92;19.27;;;4.30;81.70;;;;;;2064714;28;20117;-83
2022/03/21 00:42:22;;;;;;;29.05;19.83;;;4.30;81.70;;;;;;2050884;28;20518;-83
2022/03/21 00:43:24;;;;;;;28.75;19.20;;;4.30;81.80;;;;;;2056849;28;20030;-83
2022/03/21 00:44:25;;;;;;;28.30;19.58;;;4.30;82.50;;;;;;2060860;28;20513;-83
2022/03/21 00:45:25;;;;;;;27.20;19.27;;;4.30;81.90;;;;;;2061474;28;20062;-83
2022/03/21 00:46:26;;;;;;;24.67;18.25;;;4.30;82.00;;;;;;2062829;28;20421;-82
2022/03/21 00:47:27;;;;;;;27.30;19.95;;;4.30;81.90;;;;;;2068215;28;20599;-82
2022/03/21 00:48:30;;;;;;;27.55;20.00;;;4.30;81.90;;;;;;2071064;28;20034;-83
2022/03/21 00:49:30;;;;;;;27.77;19.67;;;4.30;81.90;;;;;;2064831;28;20030;-83
2022/03/21 00:50:31;;;;;;;27.02;19.48;;;4.30;81.90;;;;;;2063649;28;20512;-83
2022/03/21 00:51:32;;;;;;;28.30;19.38;;;4.40;82.00;;;;;;2063373;28;20027;-83
2022/03/21 00:52:41;;;;;;;27.95;19.58;;;4.40;82.00;;;;;;2048029;28;20054;-83
2022/03/21 00:53:42;;;;;;;29.15;20.48;;;4.40;82.10;;;;;;2058826;28;20366;-83
2022/03/21 00:54:42;;;;;;;27.20;19.80;;;4.40;82.00;;;;;;2072200;28;20144;-83
2022/03/21 00:55:43;;;;;;;28.50;20.77;;;4.30;82.00;;;;;;2066069;28;20527;-83
2022/03/21 00:56:44;;;;;;;26.92;19.63;;;4.40;82.10;;;;;;2057196;28;20055;-83
2022/03/21 00:57:45;;;;;;;26.80;19.77;;;4.30;82.10;;;;;;2061833;28;20503;-83
2022/03/21 00:58:45;;;;;;;27.85;19.83;;;4.30;82.10;;;;;;2061936;28;20034;-82
2022/03/21 00:59:46;;;;;;;26.98;19.60;;;4.30;82.20;;;;;;2058080;28;20382;-83
2022/03/21 01:00:47;;;;;;;29.10;20.60;;;4.30;82.90;;;;;;2059634;28;20031;-83
2022/03/21 01:01:47;;;;;;;27.55;19.23;;;4.30;82.30;;;;;;2072317;28;20125;-83
2022/03/21 01:02:48;;;;;;;26.75;19.52;;;4.20;82.30;;;;;;2071064;28;20099;-83
2022/03/21 01:03:49;;;;;;;27.40;19.80;;;4.20;82.40;;;;;;2057136;28;20463;-83
2022/03/21 01:04:50;;;;;;;28.33;20.15;;;4.20;82.50;;;;;;2064013;28;20034;-83
2022/03/21 01:05:50;;;;;;;27.77;19.88;;;4.20;82.50;;;;;;2062116;28;20038;-83
2022/03/21 01:06:51;;;;;;;27.73;19.45;;;4.20;82.50;;;;;;2064271;28;20030;-83
2022/03/21 01:07:52;;;;;;;28.13;20.15;;;4.10;82.50;;;;;;2056296;28;20038;-83
2022/03/21 01:08:53;;;;;;;27.65;19.48;;;4.10;82.60;;;;;;2051046;28;20082;-83
2022/03/21 01:09:53;;;;;;;27.42;20.33;;;4.10;82.70;;;;;;2064049;28;20496;-82
2022/03/21 01:10:54;;;;;;;31.08;20.95;;;4.10;82.70;;;;;;2071993;28;20048;-83
2022/03/21 01:11:55;;;;;;;27.85;20.40;;;4.10;82.80;;;;;;2076597;28;20400;-83
2022/03/21 01:12:56;;;;;;;29.25;20.92;;;4.10;82.80;;;;;;2061656;28;20465;-83
2022/03/21 01:13:56;;;;;;;28.52;20.38;;;4.10;82.80;;;;;;2049939;28;20034;-82
2022/03/21 01:14:57;;;;;;;28.48;19.90;;;4.10;82.70;;;;;;2071752;28;20038;-83
2022/03/21 01:15:57;;;;;;;27.83;20.33;;;4.20;82.80;;;;;;2068603;28;20081;-83
2022/03/21 01:16:58;;;;;;;28.88;19.58;;;4.20;82.80;;;;;;2065810;28;20089;-83
2022/03/21 01:17:59;;;;;;;26.95;19.35;;;4.20;82.80;;;;;;2072057;28;20050;-83
2022/03/21 01:18:59;;;;;;;27.23;19.17;;;4.20;82.70;;;;;;2067616;28;20041;-83
2022/03/21 01:20:00;;;;;;;28.70;19.65;;;4.20;82.70;;;;;;2062819;28;20489;-82
2022/03/21 01:21:01;;;;;;;26.83;19.98;;;4.20;83.30;;;;;;2063717;28;20030;-83
2022/03/21 01:22:02;;;;;;;26.77;19.67;;;4.20;82.70;;;;;;2052562;28;20027;-83
2022/03/21 01:23:03;;;;;;;27.98;20.08;;;4.20;82.70;;;;;;2059629;28;20053;-83
2022/03/21 01:24:03;;;;;;;27.27;19.33;;;4.10;82.70;;;;;;2060850;28;20484;-83
2022/03/21 01:25:05;;;;;;;29.77;20.10;;;4.10;82.70;;;;;;2064273;28;20034;-83
2022/03/21 01:26:05;;;;;;;28.92;20.58;;;4.10;82.70;;;;;;2072704;28;20427;-83
2022/03/21 01:27:06;;;;;;;28.23;19.75;;;4.10;82.70;;;;;;2072053;28;20099;-83
2022/03/21 01:28:08;;;;;;;26.95;19.98;;;4.10;82.80;;;;;;2061418;28;20365;-83
2022/03/21 01:29:08;;;;;;;25.05;19.27;;;4.10;82.80;;;;;;2063907;28;20030;-83
2022/03/21 01:30:11;;;;;;;27.05;19.45;;;4.10;82.90;;;;;;2056075;28;20045;-83
2022/03/21 01:31:12;;;;;;;27.40;19.63;;;4.10;82.90;;;;;;2060794;28;20037;-83
2022/03/21 01:32:13;;;;;;;28.05;19.73;;;4.10;82.90;;;;;;2060499;28;20057;-83
2022/03/21 01:33:13;;;;;;;28.85;20.20;;;4.10;82.90;;;;;;2056990;28;20042;-83
2022/03/21 01:34:14;;;;;;;29.30;19.90;;;4.10;82.90;;;;;;2063885;28;20018;-83
2022/03/21 01:35:17;;;;;;;28.50;19.90;;;4.10;82.90;;;;;;2069063;28;20085;-83
2022/03/21 01:36:17;;;;;;;28.58;20.17;;;4.10;83.00;;;;;;2069695;28;20101;-83
2022/03/21 01:37:18;;;;;;;26.52;19.60;;;4.10;83.00;;;;;;2055511;28;20382;-83
2022/03/21 01:38:19;;;;;;;29.05;20.70;;;4.10;83.00;;;;;;2062785;28;20059;-82
2022/03/21 01:39:20;;;;;;;27.35;19.80;;;4.10;83.00;;;;;;2064089;28;20085;-82
2022/03/21 01:40:20;;;;;;;27.42;20.05;;;4.10;83.00;;;;;;2065887;28;20035;-83
2022/03/21 01:41:21;;;;;;;27.05;19.80;;;4.20;83.10;;;;;;2074345;28;20107;-83
2022/03/21 01:42:21;;;;;;;26.27;19.15;;;4.10;83.10;;;;;;2062526;28;20416;-82
2022/03/21 01:43:22;;;;;;;29.85;21.05;;;4.20;83.10;;;;;;2055989;28;20038;-83
2022/03/21 01:44:23;;;;;;;27.73;20.48;;;4.20;83.10;;;;;;2047838;29;20605;-83
2022/03/21 01:45:27;;;;;;;28.85;19.77;;;4.20;83.10;;;;;;2047495;29;20015;-83
2022/03/21 01:46:28;;;;;;;28.75;19.77;;;4.20;83.10;;;;;;2064014;28;20062;-82
2022/03/21 01:47:29;;;;;;;26.33;19.05;;;4.20;83.10;;;;;;2068100;28;20025;-83
2022/03/21 01:48:30;;;;;;;27.92;19.83;;;4.20;83.80;;;;;;2064417;28;20974;-83
2022/03/21 01:49:31;;;;;;;27.50;19.95;;;4.20;83.20;;;;;;2063977;28;20038;-83
2022/03/21 01:50:32;;;;;;;27.13;19.52;;;4.20;83.20;;;;;;2052818;28;20038;-82
2022/03/21 01:51:35;;;;;;;28.58;19.63;;;4.20;83.20;;;;;;2042694;28;20066;-83
2022/03/21 01:52:36;;;;;;;26.45;18.48;;;4.20;83.20;;;;;;2059243;28;20026;-83
2022/03/21 01:56:31;;;;;;;25.88;18.23;;;4.20;83.40;;;;;;2056816;28;20035;-83
2022/03/21 01:57:33;;;;;;;26.05;18.35;;;4.20;83.30;;;;;;2071698;28;20564;-83
2022/03/21 01:58:34;;;;;;;26.98;19.23;;;4.20;83.40;;;;;;2079423;28;20042;-83
2022/03/21 01:59:36;;;;;;;27.10;18.63;;;4.20;83.50;;;;;;2069921;28;20025;-83
2022/03/21 02:00:37;;;;;;;25.95;19.02;;;4.20;83.50;;;;;;2063973;28;20085;-82
2022/03/21 02:01:40;;;;;;;28.90;19.27;;;4.20;83.60;;;;;;2063470;28;20085;-83
2022/03/21 02:02:40;;;;;;;27.52;18.98;;;4.20;83.60;;;;;;2068695;28;20038;-83
2022/03/21 02:03:41;;;;;;;25.77;19.00;;;4.20;83.70;;;;;;2065759;28;20038;-83
2022/03/21 02:04:42;;;;;;;26.20;19.02;;;4.20;83.80;;;;;;2061957;28;20022;-83
2022/03/21 02:05:45;;;;;;;27.75;19.05;;;4.20;83.90;;;;;;2055451;28;20130;-83
2022/03/21 02:06:46;;;;;;;26.17;18.13;;;4.10;84.50;;;;;;2056307;28;20079;-83
2022/03/21 02:07:47;;;;;;;25.38;17.83;;;4.10;83.90;;;;;;2056311;28;20094;-82
2022/03/21 02:08:48;;;;;;;25.13;18.15;;;4.20;84.00;;;;;;2056953;28;20046;-83
2022/03/21 02:09:49;;;;;;;24.65;17.63;;;4.10;84.00;;;;;;2064833;28;20508;-83
2022/03/21 02:10:51;;;;;;;25.13;17.70;;;4.10;84.00;;;;;;2074393;28;20125;-83
2022/03/21 02:11:52;;;;;;;25.00;17.38;;;4.10;84.10;;;;;;2055262;28;20498;-83
2022/03/21 02:12:53;;;;;;;27.45;18.33;;;4.10;84.20;;;;;;2047678;28;20090;-83
2022/03/21 02:13:55;;;;;;;25.38;17.73;;;4.10;84.20;;;;;;2053989;28;20027;-83
2022/03/21 02:14:56;;;;;;;25.48;17.25;;;4.10;84.30;;;;;;2061931;28;20033;-83
2022/03/21 02:15:59;;;;;;;24.75;17.42;;;4.10;84.40;;;;;;2069132;28;20046;-82
2022/03/21 02:16:59;;;;;;;24.60;17.70;;;4.10;84.40;;;;;;2073909;28;20038;-83
2022/03/21 02:18:02;;;;;;;23.33;17.50;;;4.10;84.50;;;;;;2068659;28;20050;-83
2022/03/21 02:19:31;;;;;;;24.48;17.85;;;4.10;84.50;;;;;;2064230;28;20038;-83
2022/03/21 02:20:35;;;;;;;23.60;15.90;;;4.10;84.60;;;;;;2067496;28;20035;-83
2022/03/21 02:21:42;;;;;;;22.90;16.23;;;4.10;84.50;;;;;;2066266;28;20481;-83
2022/03/21 02:23:09;;;;;;;25.00;16.90;;;4.10;84.60;;;;;;2072954;28;20084;-83
2022/03/21 02:24:14;;;;;;;22.75;16.05;;;4.10;84.60;;;;;;2066187;28;20501;-83
2022/03/21 02:25:34;;;;;;;23.10;15.70;;;4.00;84.50;;;;;;2071709;28;20074;-83
2022/03/21 02:26:36;;;;;;;21.90;15.57;;;4.10;84.60;;;;;;2073941;28;20030;-83
2022/03/21 02:27:38;;;;;;;23.65;15.85;;;4.10;84.60;;;;;;2065536;28;20073;-83
2022/03/21 02:28:40;;;;;;;22.70;15.80;;;4.00;84.60;;;;;;2071400;28;20104;-83
2022/03/21 02:29:42;;;;;;;22.95;16.42;;;4.10;84.70;;;;;;2072726;28;20037;-83
2022/03/21 02:30:46;;;;;;;23.00;16.15;;;4.00;84.70;;;;;;2070997;28;20037;-83
2022/03/21 02:31:47;;;;;;;22.38;15.98;;;4.00;84.80;;;;;;2066048;28;20026;-82
2022/03/21 02:32:48;;;;;;;20.83;15.40;;;4.00;84.80;;;;;;2072380;28;20034;-83
2022/03/21 02:33:49;;;;;;;21.90;15.07;;;4.00;84.90;;;;;;2076419;28;20026;-83
2022/03/21 02:34:50;;;;;;;20.80;15.10;;;4.00;85.00;;;;;;2073491;28;20463;-83
2022/03/21 02:35:51;;;;;;;21.15;14.93;;;4.00;84.90;;;;;;2069363;28;20062;-83
2022/03/21 02:36:55;;;;;;;20.52;14.55;;;4.00;85.00;;;;;;2072938;28;20041;-83
2022/03/21 02:37:57;;;;;;;22.08;15.05;;;4.00;85.10;;;;;;2071991;28;20032;-83
2022/03/21 02:38:59;;;;;;;21.25;15.48;;;4.10;85.20;;;;;;2072941;28;20041;-83
2022/03/21 02:40:01;;;;;;;22.52;16.30;;;4.00;85.50;;;;;;2071321;28;20113;-83
2022/03/21 02:41:02;;;;;;;22.65;15.63;;;4.00;85.20;;;;;;2072956;28;20495;-83
2022/03/21 02:42:04;;;;;;;21.75;15.15;;;4.00;85.30;;;;;;2072894;28;20084;-83
2022/03/21 02:43:05;;;;;;;20.70;15.10;;;4.00;85.30;;;;;;2066558;28;20022;-83
2022/03/21 02:44:06;;;;;;;21.23;15.10;;;4.00;85.40;;;;;;2059126;28;20039;-83
2022/03/21 02:45:07;;;;;;;21.70;15.20;;;4.00;85.40;;;;;;2065555;28;20030;-83
2022/03/21 02:46:08;;;;;;;21.58;14.77;;;4.10;85.50;;;;;;2053634;28;20043;-83
2022/03/21 02:47:10;;;;;;;21.40;15.15;;;4.10;85.60;;;;;;2055671;28;20118;-83
2022/03/21 02:48:14;;;;;;;22.92;14.63;;;4.00;85.60;;;;;;2057720;28;20481;-83
2022/03/21 02:49:15;;;;;;;21.80;14.55;;;4.10;85.70;;;;;;2067207;28;20034;-83
2022/03/21 02:50:19;;;;;;;21.98;15.10;;;4.10;85.70;;;;;;2062913;28;20542;-84
2022/03/21 02:51:21;;;;;;;20.15;14.75;;;4.10;85.70;;;;;;2072981;28;20124;-83
2022/03/21 02:52:23;;;;;;;20.58;14.02;;;4.10;85.80;;;;;;2066779;28;20026;-83
2022/03/21 02:53:27;;;;;;;22.05;14.45;;;4.00;85.70;;;;;;2065234;28;20038;-83
2022/03/21 02:54:28;;;;;;;19.42;13.68;;;4.00;85.80;;;;;;2065549;28;20439;-82
2022/03/21 02:55:29;;;;;;;19.30;13.85;;;4.10;85.90;;;;;;2062179;28;20097;-83
2022/03/21 02:56:29;;;;;;;21.73;14.18;;;4.10;85.90;;;;;;2056505;28;20038;-82
2022/03/21 02:57:32;;;;;;;20.95;14.02;;;4.10;85.90;;;;;;2053213;28;20046;-83
2022/03/21 02:58:33;;;;;;;20.17;14.52;;;4.10;86.00;;;;;;2059503;28;20033;-83
2022/03/21 02:59:34;;;;;;;19.85;13.98;;;4.10;86.00;;;;;;2073109;28;20030;-83
2022/03/21 03:00:35;;;;;;;19.05;13.50;;;4.10;86.10;;;;;;2063422;28;20026;-83
2022/03/21 03:01:36;;;;;;;21.77;14.38;;;4.10;86.10;;;;;;2057006;28;20181;-83
2022/03/21 03:02:37;;;;;;;20.13;14.50;;;4.10;86.20;;;;;;2065728;28;20038;-83
2022/03/21 03:03:38;;;;;;;20.05;14.18;;;4.10;86.20;;;;;;2069570;28;20117;-83
2022/03/21 03:04:39;;;;;;;21.02;13.90;;;4.10;86.20;;;;;;2064120;28;20113;-83
2022/03/21 03:05:39;;;;;;;20.25;14.40;;;4.10;86.20;;;;;;2063185;28;20031;-82
2022/03/21 03:06:40;;;;;;;19.17;13.75;;;4.10;86.30;;;;;;2055772;28;20155;-83
2022/03/21 03:07:41;;;;;;;21.13;14.35;;;4.10;86.30;;;;;;2063906;28;20034;-83
2022/03/21 03:08:43;;;;;;;20.88;14.80;;;4.10;86.30;;;;;;2063199;28;20490;-83
2022/03/21 03:09:44;;;;;;;20.40;14.18;;;4.10;86.40;;;;;;2072712;28;20034;-83
2022/03/21 03:10:44;;;;;;;20.83;14.52;;;4.10;86.40;;;;;;2060976;28;20027;-83
2022/03/21 03:11:45;;;;;;;20.60;13.63;;;4.10;86.40;;;;;;2047409;28;20035;-83
2022/03/21 03:12:46;;;;;;;20.42;14.35;;;4.00;86.40;;;;;;2065371;28;20110;-83
2022/03/21 03:13:46;;;;;;;20.70;14.48;;;4.00;86.40;;;;;;2072113;28;20081;-83
2022/03/21 03:14:47;;;;;;;21.58;14.75;;;4.00;86.40;;;;;;2073587;28;20034;-83
2022/03/21 03:15:47;;;;;;;18.63;13.10;;;4.00;86.50;;;;;;2072984;28;20030;-83
2022/03/21 03:16:48;;;;;;;19.17;13.65;;;4.00;86.60;;;;;;2064416;28;20037;-82
2022/03/21 03:17:49;;;;;;;19.45;13.68;;;4.00;86.60;;;;;;2067943;28;20393;-83
2022/03/21 03:18:49;;;;;;;20.25;14.05;;;4.00;86.70;;;;;;2068150;28;20038;-83
2022/03/21 03:19:50;;;;;;;18.73;13.63;;;4.00;86.70;;;;;;2057708;28;20031;-83
2022/03/21 03:20:53;;;;;;;18.58;13.40;;;4.00;86.80;;;;;;2067995;28;20042;-83
2022/03/21 03:21:55;;;;;;;18.33;13.38;;;4.00;86.90;;;;;;2066383;28;20018;-82
2022/03/21 03:22:59;;;;;;;20.15;14.13;;;4.00;87.00;;;;;;2067595;28;20038;-83
2022/03/21 03:24:01;;;;;;;19.88;14.07;;;4.00;87.00;;;;;;2066409;28;20053;-83
2022/03/21 03:25:03;;;;;;;18.73;13.52;;;4.00;87.00;;;;;;2071931;28;20032;-83
2022/03/21 03:26:05;;;;;;;17.67;12.98;;;4.00;87.00;;;;;;2073407;28;20022;-83
2022/03/21 03:27:08;;;;;;;20.65;14.23;;;4.00;87.00;;;;;;2070754;28;20121;-83
2022/03/21 03:28:09;;;;;;;19.73;12.98;;;4.00;87.00;;;;;;2065111;28;20097;-83
2022/03/21 03:29:09;;;;;;;19.40;12.60;;;4.00;87.10;;;;;;2053565;28;20541;-83
2022/03/21 03:30:10;;;;;;;19.15;12.88;;;4.00;87.10;;;;;;2062516;28;20038;-82
2022/03/21 03:31:16;;;;;;;20.00;13.27;;;4.00;87.10;;;;;;2064926;28;20065;-83
2022/03/21 03:32:17;;;;;;;19.05;13.13;;;4.00;87.20;;;;;;2063948;28;20061;-83
2022/03/21 03:33:18;;;;;;;18.17;12.75;;;4.00;87.20;;;;;;2064139;28;20440;-83
2022/03/21 03:34:19;;;;;;;18.33;12.65;;;4.00;87.30;;;;;;2064959;28;20489;-83
2022/03/21 03:35:20;;;;;;;17.33;12.63;;;4.00;87.40;;;;;;2064437;28;20425;-82
2022/03/21 03:36:21;;;;;;;19.88;13.25;;;3.90;87.30;;;;;;2056526;28;20027;-82
2022/03/21 03:37:22;;;;;;;19.17;12.85;;;4.00;87.50;;;;;;2057988;28;20055;-82
2022/03/21 03:38:22;;;;;;;17.63;12.23;;;4.00;88.10;;;;;;2054544;28;20031;-83
2022/03/21 03:39:24;;;;;;;17.55;11.98;;;4.00;87.50;;;;;;2048731;28;20042;-83
2022/03/21 03:40:25;;;;;;;17.23;11.60;;;3.90;87.50;;;;;;2062494;28;20050;-83
2022/03/21 03:41:27;;;;;;;17.17;11.98;;;3.90;87.50;;;;;;2056457;28;20026;-83
2022/03/21 03:42:27;;;;;;;18.40;12.20;;;3.90;87.60;;;;;;2064837;28;20089;-82
2022/03/21 03:43:29;;;;;;;17.75;12.23;;;3.90;87.60;;;;;;2054595;28;20521;-83
2022/03/21 03:44:30;;;;;;;19.42;12.40;;;3.90;87.60;;;;;;2052058;28;20157;-83
2022/03/21 03:45:30;;;;;;;18.23;11.95;;;3.90;87.70;;;;;;2040917;29;20099;-83
2022/03/21 03:46:31;;;;;;;16.75;12.02;;;3.90;87.70;;;;;;2041194;28;20032;-83
2022/03/21 03:47:32;;;;;;;17.42;11.85;;;3.90;88.40;;;;;;2063643;28;20160;-83
2022/03/21 03:48:32;;;;;;;16.55;11.85;;;3.90;87.90;;;;;;2056356;28;20134;-83
2022/03/21 03:49:33;;;;;;;17.13;11.52;;;3.80;87.90;;;;;;2056590;28;20030;-83
2022/03/21 03:50:34;;;;;;;18.08;12.23;;;3.90;88.00;;;;;;2069049;28;20030;-83
2022/03/21 03:51:34;;;;;;;18.55;12.18;;;3.80;88.00;;;;;;2057126;28;20126;-83
2022/03/21 03:52:35;;;;;;;17.13;12.05;;;3.80;88.00;;;;;;2060127;28;20501;-83
2022/03/21 03:53:36;;;;;;;17.25;11.23;;;3.80;88.10;;;;;;2063527;28;20042;-83
2022/03/21 03:54:36;;;;;;;17.77;11.80;;;3.80;88.10;;;;;;2064429;28;20552;-83
2022/03/21 03:55:37;;;;;;;17.27;11.70;;;3.80;88.20;;;;;;2059219;28;20385;-83
2022/03/21 03:56:37;;;;;;;17.23;11.27;;;3.80;88.20;;;;;;2065701;28;20034;-83
2022/03/21 03:57:38;;;;;;;16.40;11.05;;;3.80;88.20;;;;;;2050365;28;20118;-83
2022/03/21 03:58:40;;;;;;;17.45;11.93;;;3.80;88.30;;;;;;2046473;28;20027;-83
2022/03/21 03:59:40;;;;;;;16.63;11.20;;;3.80;88.30;;;;;;2070779;28;20037;-83
2022/03/21 04:00:41;;;;;;;17.05;11.45;;;3.80;88.40;;;;;;2061490;28;20097;-83
2022/03/21 04:01:42;;;;;;;17.02;11.60;;;3.80;88.40;;;;;;2055835;28;20046;-83
2022/03/21 04:04:03;;;;;;;17.77;11.88;;;3.70;88.50;;;;;;2062554;28;20033;-83
2022/03/21 04:05:04;;;;;;;17.15;11.57;;;3.70;88.40;;;;;;2063944;28;20034;-83
2022/03/21 04:06:04;;;;;;;17.38;12.10;;;3.70;88.50;;;;;;2064895;28;20616;-83
2022/03/21 04:07:05;;;;;;;15.85;11.15;;;3.70;88.50;;;;;;2067274;28;20026;-83
2022/03/21 04:08:07;;;;;;;17.15;10.88;;;3.70;88.60;;;;;;2066111;28;20027;-83
2022/03/21 04:09:07;;;;;;;16.30;11.80;;;3.70;88.70;;;;;;2070122;28;20153;-83
2022/03/21 04:10:08;;;;;;;17.65;11.60;;;3.70;88.70;;;;;;2068348;28;20038;-83
2022/03/21 04:11:09;;;;;;;16.17;11.55;;;3.70;88.80;;;;;;2070162;28;20111;-83
2022/03/21 04:12:10;;;;;;;16.20;10.90;;;3.70;88.70;;;;;;2067175;28;20030;-83
2022/03/21 04:13:11;;;;;;;15.40;10.70;;;3.70;88.80;;;;;;2073098;28;20116;-83
2022/03/21 04:14:11;;;;;;;16.65;11.23;;;3.70;88.80;;;;;;2062000;28;20038;-83
2022/03/21 04:15:13;;;;;;;16.67;11.27;;;3.70;88.80;;;;;;2053695;28;20047;-82
2022/03/21 04:16:16;;;;;;;16.65;11.20;;;3.70;88.90;;;;;;2051182;28;20027;-83
2022/03/21 04:17:17;;;;;;;16.95;11.70;;;3.70;89.00;;;;;;2071078;28;20128;-83
2022/03/21 04:18:19;;;;;;;17.42;11.73;;;3.70;88.90;;;;;;2064755;28;20030;-83
2022/03/21 04:19:20;;;;;;;15.05;10.48;;;3.70;88.90;;;;;;2064453;28;20031;-83
2022/03/21 04:20:23;;;;;;;17.75;11.48;;;3.80;89.00;;;;;;2056303;28;20574;-83
2022/03/21 04:21:24;;;;;;;16.33;11.10;;;3.80;89.10;;;;;;2054534;28;20038;-83
2022/03/21 04:22:24;;;;;;;16.85;11.55;;;3.80;89.10;;;;;;2072075;28;20034;-83
2022/03/21 04:23:25;;;;;;;16.15;10.88;;;3.80;89.10;;;;;;2067208;28;20110;-83
2022/03/21 04:24:25;;;;;;;17.60;10.38;;;3.80;89.10;;;;;;2073556;28;20021;-83
2022/03/21 04:25:27;;;;;;;15.98;10.43;;;3.80;89.10;;;;;;2069215;28;20112;-83
2022/03/21 04:26:28;;;;;;;15.05;10.52;;;3.80;89.10;;;;;;2072138;28;20045;-83
2022/03/21 04:27:29;;;;;;;15.65;10.43;;;3.80;89.20;;;;;;2070476;28;20095;-83
2022/03/21 04:28:29;;;;;;;15.82;10.93;;;3.80;89.20;;;;;;2057065;28;20414;-83
2022/03/21 04:29:30;;;;;;;15.60;10.57;;;3.80;89.20;;;;;;2058325;28;20126;-82
2022/03/21 04:30:30;;;;;;;16.55;10.55;;;3.80;89.20;;;;;;2054687;28;20370;-83
2022/03/21 04:31:33;;;;;;;14.45;10.20;;;3.80;89.20;;;;;;2053972;28;20027;-83
2022/03/21 04:32:34;;;;;;;16.40;10.45;;;3.80;89.20;;;;;;2061542;28;20019;-83
2022/03/21 04:33:35;;;;;;;14.90;9.80;;;3.80;89.30;;;;;;2065455;28;20033;-83
2022/03/21 04:34:35;;;;;;;15.30;10.43;;;3.80;89.30;;;;;;2063731;28;20038;-82
2022/03/21 04:35:37;;;;;;;15.32;10.55;;;3.80;89.30;;;;;;2060049;28;20466;-82
2022/03/21 04:36:39;;;;;;;16.58;10.43;;;3.80;89.40;;;;;;2071713;28;20038;-82
2022/03/21 04:37:40;;;;;;;15.73;9.98;;;3.80;89.40;;;;;;2056085;28;20050;-83
2022/03/21 04:38:41;;;;;;;14.00;9.52;;;3.80;89.50;;;;;;2055687;28;20164;-83
2022/03/21 04:39:42;;;;;;;14.95;9.50;;;3.80;89.50;;;;;;2054806;28;20098;-83
2022/03/21 04:40:47;;;;;;;15.00;9.43;;;3.80;89.50;;;;;;2057350;28;20053;-83
2022/03/21 04:41:48;;;;;;;14.48;9.52;;;3.80;89.50;;;;;;2071036;28;20025;-82
2022/03/21 04:42:49;;;;;;;14.82;9.55;;;3.80;89.50;;;;;;2067387;28;20034;-83
2022/03/21 04:43:50;;;;;;;14.10;9.18;;;3.80;89.50;;;;;;2067905;28;20033;-83
2022/03/21 04:44:51;;;;;;;15.85;9.90;;;3.80;89.50;;;;;;2056812;28;20384;-83
2022/03/21 04:45:52;;;;;;;15.77;10.07;;;3.80;89.40;;;;;;2064163;28;20043;-83
2022/03/21 04:46:52;;;;;;;14.05;9.90;;;3.90;89.50;;;;;;2072598;28;20065;-83
2022/03/21 04:47:53;;;;;;;14.30;9.50;;;3.80;89.40;;;;;;2067015;28;20026;-83
2022/03/21 04:48:54;;;;;;;13.68;9.07;;;3.80;89.30;;;;;;2064848;28;20046;-83
2022/03/21 04:49:55;;;;;;;13.00;9.23;;;3.80;89.30;;;;;;2062454;28;20587;-82
2022/03/21 04:50:55;;;;;;;13.45;9.40;;;3.80;89.40;;;;;;2071154;28;20447;-83
2022/03/21 04:51:56;;;;;;;14.15;9.95;;;3.80;89.40;;;;;;2070384;28;20099;-83
2022/03/21 04:52:57;;;;;;;14.45;9.25;;;3.80;89.40;;;;;;2071379;28;20034;-83
2022/03/21 04:53:58;;;;;;;14.07;9.63;;;3.80;89.50;;;;;;2070507;28;20062;-83
2022/03/21 04:54:59;;;;;;;14.02;9.45;;;3.80;89.50;;;;;;2064213;28;20030;-83
2022/03/21 04:56:00;;;;;;;14.30;9.10;;;3.80;89.50;;;;;;2069186;28;20046;-83
2022/03/21 04:57:00;;;;;;;14.50;9.57;;;3.80;89.50;;;;;;2072457;28;20034;-83
2022/03/21 04:58:02;;;;;;;14.55;9.88;;;3.80;89.50;;;;;;2064682;28;20108;-83
2022/03/21 04:59:02;;;;;;;13.82;9.23;;;3.70;89.40;;;;;;2062309;28;20100;-83
2022/03/21 05:00:04;;;;;;;13.63;9.32;;;3.70;89.50;;;;;;2063152;28;20026;-83
2022/03/21 05:01:05;;;;;;;13.93;9.25;;;3.70;89.50;;;;;;2059817;28;20037;-82
2022/03/21 05:02:06;;;;;;;14.82;9.55;;;3.70;89.50;;;;;;2060337;28;20026;-83
2022/03/21 05:03:07;;;;;;;14.05;9.07;;;3.70;89.50;;;;;;2072542;28;20034;-83
2022/03/21 05:04:08;;;;;;;14.65;9.45;;;3.70;89.60;;;;;;2072772;28;20022;-83
2022/03/21 05:05:09;;;;;;;13.10;9.20;;;3.70;89.60;;;;;;2063602;28;20554;-83
2022/03/21 05:06:10;;;;;;;13.80;9.50;;;3.70;89.70;;;;;;2051399;28;20049;-83
2022/03/21 05:07:16;;;;;;;14.65;9.68;;;3.70;89.70;;;;;;2061181;28;20037;-83
2022/03/21 05:08:17;;;;;;;12.88;9.15;;;3.70;90.10;;;;;;2064400;28;20125;-83
2022/03/21 05:09:17;;;;;;;14.05;9.60;;;3.70;89.70;;;;;;2052855;28;20401;-83
2022/03/21 05:10:19;;;;;;;14.73;9.75;;;3.70;89.70;;;;;;2053854;28;20545;-83
2022/03/21 05:11:20;;;;;;;14.05;9.45;;;3.60;89.70;;;;;;2055821;28;20034;-83
2022/03/21 05:12:20;;;;;;;14.93;9.55;;;3.60;89.70;;;;;;2072289;28;20543;-83
2022/03/21 05:13:21;;;;;;;14.40;9.70;;;3.60;89.60;;;;;;2071459;28;20038;-83
2022/03/21 05:14:22;;;;;;;14.02;9.52;;;3.60;89.70;;;;;;2064443;28;20082;-83
2022/03/21 05:15:23;;;;;;;14.07;9.43;;;3.60;89.70;;;;;;2055727;28;20034;-83
2022/03/21 05:16:24;;;;;;;14.38;9.60;;;3.60;89.70;;;;;;2064561;28;20030;-83
2022/03/21 05:17:28;;;;;;;14.68;9.43;;;3.50;89.70;;;;;;2064671;28;20370;-83
2022/03/21 05:18:29;;;;;;;14.85;9.48;;;3.50;89.80;;;;;;2066229;28;20022;-83
2022/03/21 05:19:30;;;;;;;13.20;9.18;;;3.50;89.80;;;;;;2055858;28;20458;-83
2022/03/21 05:20:30;;;;;;;14.30;9.40;;;3.50;90.20;;;;;;2063044;28;20100;-83